Rushford, MN (55971)

3:08 AM CDT on September 04, 2015 (GMT -0500)
500 Nannestad Lane | | Change Station
CLOSE
Current Station
Personal Weather Station
Location: Rushford, MN
Elevation: 728 ft
Nearby Weather Stations

Elev 728 ft 43.81 °N, 91.75 °W | Updated 13 minutes ago

Clear
Clear
72.1 °F
Feels Like 72.1 °F
N
1.7
Wind Variable Wind from NE

Today
High -- | Low -- °F
--% Chance of Precip.
Yesterday
High -- | Low -- °F
Precip. -- in
6:33 AM 7:37 PM
Waning Gibbous, 62% visible
Pressure 29.96 in
Visibility 10.0 miles
Clouds Scattered Clouds 11000 ft
Dew Point 69 °F
Humidity 90%
Rainfall 0.00 in
Snow Depth Not available.
UV 0 out of 12
Pollen 10.10 out of 12
Air Quality Not available.
Flu Activity Not available.
METAR KONA 040754Z AUTO 13006KT 10SM SCT110 22/19 A2996 RMK AO2
Pressure 29.96 in
Visibility 10.0 miles
Clouds Scattered Clouds 11000 ft
Dew Point 69 °F
Humidity 90%
Rainfall 0.00 in
Snow Depth Not available.
UV 0 out of 12
Pollen 10.10 out of 12
Air Quality Not available.
Flu Activity Not available.
METAR KONA 040754Z AUTO 13006KT 10SM SCT110 22/19 A2996 RMK AO2

10-Day Weather Forecast

×

Almanac

Astronomy

Sep. 04, 2015 Rise Set
Actual Time
Civil Twilight
Nautical Twilight
Astronomical Twilight
Moon
Length of Visible Light
Length of Day
Tomorrow will be .
, % of the Moon is Illuminated

Today's Extremes

State Highs State Lows

Community

WunderPhotos

Upload Photos

1,852,141 photos uploaded!

WunderBlogs® & News

Nearby

Air Quality

  Air Quality AQ Index Pollutant
Not available.

Snow Depth

Station Depth Elevation

Earthquake Activity

City Distance Mag. Time & Date
Minimum magnitude displayed is 2.5.

Coastal Water Temperatures

Place Temperature

Stations

Nearby Weather Stations

Station Location Temp. Windchill Dew Point Humidity Wind Precip. Elev Updated Type